createdAt,value
2019-01-14T00:01:04.943Z,-1.69
2019-01-14T00:03:34.823Z,-1.67
2019-01-14T00:06:10.320Z,-1.67
2019-01-14T00:08:58.348Z,-1.66
2019-01-14T00:11:27.882Z,-1.68
2019-01-14T00:13:57.541Z,-1.70
2019-01-14T00:16:27.570Z,-1.75
2019-01-14T00:19:16.240Z,-1.81
2019-01-14T00:21:46.190Z,-1.84
2019-01-14T00:24:15.637Z,-1.93
2019-01-14T00:26:45.210Z,-1.98
2019-01-14T00:29:34.047Z,-2.05
2019-01-14T00:32:03.557Z,-2.13
2019-01-14T00:34:47.375Z,-2.23
2019-01-14T00:37:11.061Z,-2.32
2019-01-14T00:39:52.574Z,-2.40
2019-01-14T00:42:41.145Z,-2.47
2019-01-14T00:45:10.831Z,-2.56
2019-01-14T00:47:40.441Z,-2.66
2019-01-14T00:50:14.430Z,-2.72
2019-01-14T00:52:44.586Z,-2.76
2019-01-14T00:58:04.300Z,-2.86
2019-01-14T01:00:54.250Z,-2.91
2019-01-14T01:03:27.013Z,-2.94
2019-01-14T01:06:01.227Z,-2.99
2019-01-14T01:11:06.278Z,-3.06
2019-01-14T01:16:13.864Z,-3.11
2019-01-14T01:18:54.684Z,-3.15
2019-01-14T01:24:13.767Z,-3.20
2019-01-14T01:27:01.122Z,-3.24
2019-01-14T01:29:58.110Z,-3.26
2019-01-14T01:35:31.834Z,-3.30
2019-01-14T01:38:21.156Z,-3.32
2019-01-14T01:41:12.145Z,-3.34
2019-01-14T01:43:41.606Z,-3.34
2019-01-14T01:46:13.612Z,-3.37
2019-01-14T01:49:09.983Z,-3.39
2019-01-14T01:57:17.936Z,-3.39
2019-01-14T02:02:40.226Z,-3.40
2019-01-14T02:05:49.739Z,-3.41
2019-01-14T02:08:30.694Z,-3.39
2019-01-14T02:13:54.216Z,-3.40
2019-01-14T02:19:26.420Z,-3.41
2019-01-14T02:21:55.993Z,-3.40
2019-01-14T02:24:25.492Z,-3.37
2019-01-14T02:32:08.051Z,-3.29
2019-01-14T02:35:15.778Z,-3.25
2019-01-14T02:37:45.250Z,-3.21
2019-01-14T02:40:54.178Z,-3.17
2019-01-14T02:43:47.219Z,-3.15
2019-01-14T02:46:21.663Z,-3.09
2019-01-14T02:48:55.478Z,-3.03
2019-01-14T02:51:29.345Z,-2.99
2019-01-14T02:57:05.150Z,-2.90
2019-01-14T03:03:03.273Z,-2.83
2019-01-14T03:05:40.714Z,-2.79
2019-01-14T03:08:21.762Z,-2.76
2019-01-14T03:11:10.583Z,-2.73
2019-01-14T03:13:41.013Z,-2.70
2019-01-14T03:16:33.273Z,-2.69
2019-01-14T03:19:14.257Z,-2.68
2019-01-14T03:21:44.587Z,-2.69
2019-01-14T03:24:34.784Z,-2.68
2019-01-14T03:27:04.338Z,-2.68
2019-01-14T03:29:37.210Z,-2.69
2019-01-14T03:32:31.553Z,-2.68
2019-01-14T03:35:01.708Z,-2.69
2019-01-14T03:37:31.465Z,-2.67
2019-01-14T03:40:00.895Z,-2.67
2019-01-14T03:42:31.142Z,-2.69
2019-01-14T03:45:00.568Z,-2.69
2019-01-14T03:47:35.235Z,-2.69
2019-01-14T03:53:30.835Z,-2.70
2019-01-14T03:56:20.907Z,-2.69
2019-01-14T03:59:09.509Z,-2.68
2019-01-14T04:01:58.166Z,-2.68
2019-01-14T04:07:42.508Z,-2.68
2019-01-14T04:10:31.041Z,-2.65
2019-01-14T04:13:38.853Z,-2.66
2019-01-14T04:16:20.127Z,-2.66
2019-01-14T04:18:50.447Z,-2.65
2019-01-14T04:21:20.824Z,-2.66
2019-01-14T04:23:50.669Z,-2.67
2019-01-14T04:26:39.220Z,-2.68
2019-01-14T04:32:14.502Z,-2.65
2019-01-14T04:37:49.618Z,-2.64
2019-01-14T04:40:19.444Z,-2.63
2019-01-14T04:48:23.123Z,-2.59
2019-01-14T04:50:53.343Z,-2.59
2019-01-14T04:53:43.155Z,-2.61
2019-01-14T04:56:24.714Z,-2.63
2019-01-14T05:01:54.316Z,-2.67
2019-01-14T05:04:24.128Z,-2.69
2019-01-14T05:07:14.808Z,-2.71
2019-01-14T05:10:11.144Z,-2.72
2019-01-14T05:15:17.202Z,-2.75
2019-01-14T05:17:47.082Z,-2.77
2019-01-14T05:23:22.664Z,-2.80
2019-01-14T05:25:52.364Z,-2.81
2019-01-14T05:28:49.975Z,-2.83
2019-01-14T05:31:19.699Z,-2.82
2019-01-14T05:33:49.482Z,-2.84
2019-01-14T05:36:50.048Z,-2.85
2019-01-14T05:39:44.607Z,-2.84
2019-01-14T05:42:33.218Z,-2.85
2019-01-14T05:45:25.361Z,-2.82
2019-01-14T05:47:55.143Z,-2.81
2019-01-14T05:50:24.650Z,-2.78
2019-01-14T05:52:54.422Z,-2.79
2019-01-14T05:55:44.700Z,-2.77
2019-01-14T06:01:29.049Z,-2.74
2019-01-14T06:03:58.664Z,-2.74
2019-01-14T06:06:47.246Z,-2.75
2019-01-14T06:09:16.762Z,-2.75
2019-01-14T06:11:49.504Z,-2.79
2019-01-14T06:14:39.629Z,-2.79
2019-01-14T06:22:39.387Z,-2.77
2019-01-14T06:25:20.736Z,-2.76
2019-01-14T06:27:51.183Z,-2.74
2019-01-14T06:30:23.013Z,-2.74
2019-01-14T06:32:52.657Z,-2.73
2019-01-14T06:35:41.194Z,-2.73
2019-01-14T06:38:29.703Z,-2.72
2019-01-14T06:40:59.279Z,-2.69
2019-01-14T06:43:29.050Z,-2.66
2019-01-14T06:49:06.640Z,-2.67
2019-01-14T06:51:36.187Z,-2.61
2019-01-14T06:54:05.876Z,-2.62
2019-01-14T06:56:35.629Z,-2.61
2019-01-14T06:59:05.218Z,-2.64
2019-01-14T07:01:34.781Z,-2.65
2019-01-14T07:04:23.257Z,-2.66
2019-01-14T07:06:53.216Z,-2.67
2019-01-14T07:09:42.301Z,-2.70
2019-01-14T07:12:51.112Z,-2.71
2019-01-14T07:15:20.686Z,-2.74
2019-01-14T07:18:16.548Z,-2.78
2019-01-14T07:20:47.151Z,-2.81
2019-01-14T07:23:36.738Z,-2.87
2019-01-14T07:26:28.786Z,-2.90
2019-01-14T07:28:58.415Z,-2.93
2019-01-14T07:31:28.018Z,-2.97
2019-01-14T07:33:57.727Z,-3.00
2019-01-14T07:36:46.351Z,-3.07
2019-01-14T07:39:15.895Z,-3.10
2019-01-14T07:41:45.427Z,-3.13
2019-01-14T07:44:14.953Z,-3.16
2019-01-14T07:46:44.587Z,-3.17
2019-01-14T07:49:28.447Z,-3.18
2019-01-14T07:51:58.110Z,-3.16
2019-01-14T07:57:36.824Z,-3.12
2019-01-14T08:00:17.645Z,-3.10
2019-01-14T08:02:48.284Z,-3.08
2019-01-14T08:05:36.968Z,-3.05
2019-01-14T08:08:18.494Z,-3.02
2019-01-14T08:10:48.231Z,-3.00
2019-01-14T08:13:17.734Z,-2.99
2019-01-14T08:15:47.644Z,-2.95
2019-01-14T08:18:17.339Z,-2.93
2019-01-14T08:20:46.818Z,-2.91
2019-01-14T08:23:16.386Z,-2.84
2019-01-14T08:25:45.830Z,-2.79
2019-01-14T08:28:15.321Z,-2.72
2019-01-14T08:30:44.800Z,-2.68
2019-01-14T08:33:33.160Z,-2.60
2019-01-14T08:36:14.103Z,-2.55
2019-01-14T08:39:25.458Z,-2.49
2019-01-14T08:47:36.681Z,-2.34
2019-01-14T08:50:08.295Z,-2.29
2019-01-14T08:52:39.265Z,-2.24
2019-01-14T08:55:08.906Z,-2.17
2019-01-14T08:57:40.903Z,-2.10
2019-01-14T09:00:29.779Z,-2.04
2019-01-14T09:05:53.310Z,-1.88
2019-01-14T09:08:28.655Z,-1.79
2019-01-14T09:11:06.058Z,-1.71
2019-01-14T09:13:35.824Z,-1.66
2019-01-14T09:22:14.570Z,-1.37
2019-01-14T09:24:44.549Z,-1.30
2019-01-14T09:30:02.095Z,-1.22
2019-01-14T09:32:40.086Z,-1.16
2019-01-14T09:35:09.757Z,-1.14
2019-01-14T09:37:39.467Z,-1.09
2019-01-14T09:40:30.190Z,-1.04
2019-01-14T09:46:13.210Z,-0.96
2019-01-14T09:48:42.771Z,-0.88
2019-01-14T09:51:12.272Z,-0.83
2019-01-14T09:53:41.763Z,-0.80
2019-01-14T09:56:30.482Z,-0.71
2019-01-14T09:59:14.622Z,-0.71
2019-01-14T10:01:32.394Z,-0.69
2019-01-14T10:04:12.950Z,-0.65
2019-01-14T10:06:42.803Z,-0.65
2019-01-14T10:09:15.592Z,-0.63
2019-01-14T10:11:53.703Z,-0.60
2019-01-14T10:14:26.076Z,-0.56
2019-01-14T10:19:32.543Z,-0.58
2019-01-14T10:22:02.009Z,-0.60
2019-01-14T10:24:37.867Z,-0.56
2019-01-14T10:27:47.974Z,-0.54
2019-01-14T10:33:13.534Z,-0.49
2019-01-14T10:35:42.976Z,-0.53
2019-01-14T10:41:06.552Z,-0.46
2019-01-14T10:46:29.688Z,-0.31
2019-01-14T10:48:59.497Z,-0.31
2019-01-14T10:51:28.986Z,-0.26
2019-01-14T10:54:01.919Z,-0.22
2019-01-14T10:56:31.454Z,-0.21
2019-01-14T10:59:22.083Z,-0.22
2019-01-14T11:01:51.744Z,-0.16
2019-01-14T11:04:21.262Z,-0.14
2019-01-14T11:07:02.105Z,-0.12
2019-01-14T11:09:38.717Z,-0.08
2019-01-14T11:12:08.486Z,-0.02
2019-01-14T11:14:38.107Z,0.06
2019-01-14T11:17:07.751Z,0.09
2019-01-14T11:19:39.913Z,0.09
2019-01-14T11:22:29.783Z,0.15
2019-01-14T11:24:59.308Z,0.16
2019-01-14T11:27:49.087Z,0.18
2019-01-14T11:30:32.394Z,0.21
2019-01-14T11:33:01.861Z,0.24
2019-01-14T11:35:31.327Z,0.25
2019-01-14T11:38:00.956Z,0.25
2019-01-14T11:40:49.605Z,0.28
2019-01-14T11:46:27.324Z,0.36
2019-01-14T11:49:18.284Z,0.41
2019-01-14T11:51:47.864Z,0.42
2019-01-14T11:54:17.494Z,0.42
2019-01-14T11:56:47.056Z,0.45
2019-01-14T12:01:52.083Z,0.49
2019-01-14T12:04:21.897Z,0.56
2019-01-14T12:06:51.339Z,0.56
2019-01-14T12:09:21.408Z,0.55
2019-01-14T12:11:51.658Z,0.52
2019-01-14T12:14:41.728Z,0.52
2019-01-14T12:17:31.634Z,0.51
2019-01-14T12:23:12.239Z,0.56
2019-01-14T12:25:41.895Z,0.57
2019-01-14T12:28:30.378Z,0.53
2019-01-14T12:31:11.290Z,0.58
2019-01-14T12:33:41.082Z,0.58
2019-01-14T12:36:11.108Z,0.60
2019-01-14T12:38:40.572Z,0.63
2019-01-14T12:41:10.138Z,0.64
2019-01-14T12:43:41.751Z,0.58
2019-01-14T12:46:34.168Z,0.58
2019-01-14T12:49:04.280Z,0.64
2019-01-14T12:51:33.998Z,0.66
2019-01-14T12:54:22.476Z,0.68
2019-01-14T12:56:51.944Z,0.69
2019-01-14T12:59:21.448Z,0.67
2019-01-14T13:01:51.370Z,0.68
2019-01-14T13:04:42.642Z,0.71
2019-01-14T13:07:24.323Z,0.77
2019-01-14T13:10:05.222Z,0.82
2019-01-14T13:12:35.755Z,0.82
2019-01-14T13:15:25.671Z,0.82
2019-01-14T13:17:55.777Z,0.84
2019-01-14T13:20:30.664Z,0.90
2019-01-14T13:23:00.689Z,0.90
2019-01-14T13:25:30.708Z,0.90
2019-01-14T13:28:00.402Z,0.89
2019-01-14T13:30:31.448Z,0.91
2019-01-14T13:33:20.068Z,0.86
2019-01-14T13:36:00.777Z,0.85
2019-01-14T13:38:31.808Z,0.85
2019-01-14T13:43:55.242Z,0.87
2019-01-14T13:46:26.327Z,0.86
2019-01-14T13:49:14.948Z,0.82
2019-01-14T13:51:56.044Z,0.75
2019-01-14T13:54:29.732Z,0.72
2019-01-14T13:56:59.579Z,0.69
2019-01-14T13:59:32.246Z,0.73
2019-01-14T14:02:25.416Z,0.71
2019-01-14T14:05:14.334Z,0.69
2019-01-14T14:07:55.486Z,0.68
2019-01-14T14:10:28.575Z,0.68
2019-01-14T14:13:17.076Z,0.69
2019-01-14T14:16:05.687Z,0.69
2019-01-14T14:18:35.659Z,0.68
2019-01-14T14:21:06.958Z,0.66
2019-01-14T14:23:36.733Z,0.67
2019-01-14T14:26:51.535Z,0.67
2019-01-14T14:32:27.570Z,0.69
2019-01-14T14:35:07.609Z,0.69
2019-01-14T14:37:40.700Z,0.70
2019-01-14T14:40:12.880Z,0.70
2019-01-14T14:43:01.545Z,0.75
2019-01-14T14:45:31.389Z,0.75
2019-01-14T14:48:01.223Z,0.75
2019-01-14T14:50:43.040Z,0.75
2019-01-14T14:53:05.181Z,0.77
2019-01-14T14:58:38.822Z,0.81
2019-01-14T15:01:28.323Z,0.83
2019-01-14T15:04:09.273Z,0.83
2019-01-14T15:06:52.793Z,0.80
2019-01-14T15:09:31.711Z,0.84
2019-01-14T15:12:00.307Z,0.84
2019-01-14T15:14:30.692Z,0.83
2019-01-14T15:17:00.279Z,0.83
2019-01-14T15:19:31.773Z,0.77
2019-01-14T15:22:01.237Z,0.77
2019-01-14T15:24:34.022Z,0.83
2019-01-14T15:27:03.937Z,0.81
2019-01-14T15:29:52.455Z,0.79
2019-01-14T15:32:23.653Z,0.79
2019-01-14T15:34:53.147Z,0.76
2019-01-14T15:37:25.094Z,0.77
2019-01-14T15:39:54.828Z,0.79
2019-01-14T15:42:24.605Z,0.79
2019-01-14T15:45:14.055Z,0.81
2019-01-14T15:47:55.099Z,0.81
2019-01-14T15:50:25.292Z,0.82
2019-01-14T15:53:13.754Z,0.80
2019-01-14T15:55:43.317Z,0.80
2019-01-14T15:58:31.865Z,0.70
2019-01-14T16:01:20.213Z,0.70
2019-01-14T16:03:49.713Z,0.70
2019-01-14T16:06:38.457Z,0.73
2019-01-14T16:09:19.241Z,0.73
2019-01-14T16:11:49.515Z,0.67
2019-01-14T16:14:19.759Z,0.73
2019-01-14T16:17:13.670Z,0.71
2019-01-14T16:20:03.968Z,0.71
2019-01-14T16:22:46.130Z,0.71
2019-01-14T16:25:18.255Z,0.72
2019-01-14T16:27:47.676Z,0.72
2019-01-14T16:35:51.856Z,0.68
2019-01-14T16:38:21.426Z,0.68
2019-01-14T16:44:00.510Z,0.58
2019-01-14T16:46:32.530Z,0.65
2019-01-14T16:49:14.252Z,0.63
2019-01-14T16:51:47.231Z,0.64
2019-01-14T16:54:16.698Z,0.66
2019-01-14T16:59:55.614Z,0.64
2019-01-14T17:02:47.150Z,0.68
2019-01-14T17:05:40.222Z,0.68
2019-01-14T17:08:39.702Z,0.68
2019-01-14T17:11:13.404Z,0.68
2019-01-14T17:14:08.118Z,0.68
2019-01-14T17:16:53.039Z,0.68
2019-01-14T17:19:33.493Z,0.69
2019-01-14T17:22:03.121Z,0.65
2019-01-14T17:27:26.471Z,0.60
2019-01-14T17:29:58.501Z,0.60
2019-01-14T17:32:46.990Z,0.53
2019-01-14T17:35:18.602Z,0.50
2019-01-14T17:37:48.056Z,0.52
2019-01-14T17:40:19.030Z,0.52
2019-01-14T17:42:48.718Z,0.47
2019-01-14T17:45:18.837Z,0.48
2019-01-14T17:48:07.444Z,0.43
2019-01-14T17:50:48.773Z,0.41
2019-01-14T17:53:18.321Z,0.41
2019-01-14T17:56:06.955Z,0.41
2019-01-14T17:58:36.492Z,0.41
2019-01-14T18:01:06.293Z,0.42
2019-01-14T18:03:35.966Z,0.43
2019-01-14T18:06:05.602Z,0.43
2019-01-14T18:08:35.081Z,0.43
2019-01-14T18:11:04.893Z,0.43
2019-01-14T18:13:53.403Z,0.44
2019-01-14T18:16:23.009Z,0.44
2019-01-14T18:18:52.630Z,0.44
2019-01-14T18:21:33.275Z,0.46
2019-01-14T18:24:05.589Z,0.46
2019-01-14T18:26:35.407Z,0.49
2019-01-14T18:29:05.100Z,0.50
2019-01-14T18:31:49.300Z,0.52
2019-01-14T18:34:06.978Z,0.50
2019-01-14T18:36:55.567Z,0.53
2019-01-14T18:39:25.117Z,0.53
2019-01-14T18:42:13.610Z,0.50
2019-01-14T18:44:43.201Z,0.51
2019-01-14T18:47:12.717Z,0.53
2019-01-14T18:49:42.404Z,0.53
2019-01-14T18:55:08.155Z,0.58
2019-01-14T19:00:17.981Z,0.60
2019-01-14T19:02:59.142Z,0.58
2019-01-14T19:05:41.097Z,0.62
2019-01-14T19:08:21.889Z,0.62
2019-01-14T19:11:03.224Z,0.61
2019-01-14T19:13:50.251Z,0.65
2019-01-14T19:16:31.910Z,0.67
2019-01-14T19:19:05.928Z,0.67
2019-01-14T19:21:39.425Z,0.70
2019-01-14T19:24:29.385Z,0.72
2019-01-14T19:26:59.338Z,0.73
2019-01-14T19:29:29.413Z,0.73
2019-01-14T19:32:02.214Z,0.74
2019-01-14T19:34:31.771Z,0.77
2019-01-14T19:37:01.830Z,0.77
2019-01-14T19:39:31.422Z,0.73
2019-01-14T19:42:03.459Z,0.73
2019-01-14T19:44:33.033Z,0.76
2019-01-14T19:47:02.519Z,0.76
2019-01-14T19:49:33.604Z,0.73
2019-01-14T19:52:15.784Z,0.75
2019-01-14T19:54:45.841Z,0.75
2019-01-14T19:57:15.460Z,0.75
2019-01-14T20:00:05.173Z,0.69
2019-01-14T20:05:31.520Z,0.70
2019-01-14T20:11:17.773Z,0.71
2019-01-14T20:13:47.247Z,0.71
2019-01-14T20:16:17.143Z,0.73
2019-01-14T20:21:22.380Z,0.73
2019-01-14T20:23:52.425Z,0.74
2019-01-14T20:26:42.192Z,0.70
2019-01-14T20:29:11.777Z,0.74
2019-01-14T20:32:00.373Z,0.71
2019-01-14T20:34:30.039Z,0.71
2019-01-14T20:37:02.698Z,0.71
2019-01-14T20:39:32.188Z,0.68
2019-01-14T20:42:01.679Z,0.69
2019-01-14T20:44:31.364Z,0.70
2019-01-14T20:47:01.361Z,0.65
2019-01-14T20:49:31.094Z,0.65
2019-01-14T20:52:00.924Z,0.60
2019-01-14T20:54:33.513Z,0.60
2019-01-14T20:59:38.793Z,0.56
2019-01-14T21:02:19.846Z,0.55
2019-01-14T21:04:50.234Z,0.53
2019-01-14T21:07:38.548Z,0.53
2019-01-14T21:10:09.064Z,0.46
2019-01-14T21:12:38.438Z,0.46
2019-01-14T21:15:08.784Z,0.47
2019-01-14T21:17:40.963Z,0.50
2019-01-14T21:20:13.895Z,0.49
2019-01-14T21:23:26.869Z,0.49
2019-01-14T21:25:56.232Z,0.49
2019-01-14T21:28:25.761Z,0.50
2019-01-14T21:30:55.125Z,0.47
2019-01-14T21:33:24.718Z,0.47
2019-01-14T21:36:13.139Z,0.47
2019-01-14T21:38:43.412Z,0.49
2019-01-14T21:41:12.965Z,0.49
2019-01-14T21:44:14.318Z,0.47
2019-01-14T21:46:44.393Z,0.42
2019-01-14T21:49:14.147Z,0.42
2019-01-14T21:51:43.579Z,0.43
2019-01-14T22:00:09.548Z,0.42
2019-01-14T22:02:39.649Z,0.43
2019-01-14T22:05:08.961Z,0.42
2019-01-14T22:07:41.824Z,0.42
2019-01-14T22:10:14.076Z,0.41
2019-01-14T22:13:02.498Z,0.39
2019-01-14T22:15:32.098Z,0.39
2019-01-14T22:18:04.733Z,0.37
2019-01-14T22:20:53.445Z,0.35
2019-01-14T22:26:16.102Z,0.33
2019-01-14T22:28:45.438Z,0.33
2019-01-14T22:31:15.065Z,0.30
2019-01-14T22:33:44.511Z,0.28
2019-01-14T22:36:14.441Z,0.26
2019-01-14T22:38:43.860Z,0.22
2019-01-14T22:41:13.589Z,0.22
2019-01-14T22:43:43.223Z,0.18
2019-01-14T22:46:12.683Z,0.18
2019-01-14T22:48:53.946Z,0.15
2019-01-14T22:51:23.594Z,0.14
2019-01-14T22:54:12.485Z,0.10
2019-01-14T22:56:42.502Z,0.10
2019-01-14T22:59:11.994Z,0.08
2019-01-14T23:02:00.556Z,0.08
2019-01-14T23:04:30.237Z,0.08
2019-01-14T23:07:18.908Z,0.06
2019-01-14T23:10:00.005Z,0.07
2019-01-14T23:15:06.353Z,0.05
2019-01-14T23:17:36.029Z,0.05
2019-01-14T23:20:06.639Z,0.05
2019-01-14T23:22:36.179Z,0.04
2019-01-14T23:25:14.207Z,0.04
2019-01-14T23:28:03.185Z,0.04
2019-01-14T23:30:51.982Z,0.00
2019-01-14T23:33:27.620Z,0.00
2019-01-14T23:35:57.356Z,-0.01
2019-01-14T23:39:06.095Z,0.00
2019-01-14T23:41:35.826Z,0.00
2019-01-14T23:44:06.208Z,0.01
2019-01-14T23:46:36.237Z,0.01
2019-01-14T23:49:14.556Z,0.02
2019-01-14T23:54:19.300Z,0.05
2019-01-14T23:57:08.269Z,0.06
2019-01-14T23:59:55.098Z,0.05
